createdAt,value
2019-05-17T00:01:07.397Z,9.20
2019-05-17T00:03:36.795Z,9.10
2019-05-17T00:06:06.642Z,9.10
2019-05-17T00:08:38.237Z,9.10
2019-05-17T00:11:07.284Z,9.10
2019-05-17T00:13:38.703Z,9.10
2019-05-17T00:16:07.622Z,9.10
2019-05-17T00:18:37.151Z,9.10
2019-05-17T00:21:07.758Z,9.10
2019-05-17T00:23:37.617Z,9.10
2019-05-17T00:26:07.328Z,9.10
2019-05-17T00:28:37.440Z,9.10
2019-05-17T00:31:06.924Z,9.10
2019-05-17T00:33:36.689Z,9.10
2019-05-17T00:36:06.967Z,9.10
2019-05-17T00:38:47.975Z,9.10
2019-05-17T00:41:07.593Z,9.10
2019-05-17T00:43:37.036Z,9.10
2019-05-17T00:46:06.835Z,9.10
2019-05-17T00:48:37.328Z,9.10
2019-05-17T00:51:09.860Z,9.00
2019-05-17T00:53:37.817Z,9.00
2019-05-17T00:56:06.979Z,9.00
2019-05-17T00:58:37.112Z,9.00
2019-05-17T01:01:08.398Z,9.00
2019-05-17T01:03:37.572Z,9.00
2019-05-17T01:06:06.917Z,9.00
2019-05-17T01:08:37.310Z,9.00
2019-05-17T01:11:07.238Z,9.00
2019-05-17T01:13:37.455Z,9.00
2019-05-17T01:16:07.471Z,9.00
2019-05-17T01:18:36.873Z,9.00
2019-05-17T01:21:06.922Z,9.00
2019-05-17T01:23:36.355Z,9.00
2019-05-17T01:26:07.601Z,9.00
2019-05-17T01:28:36.620Z,9.00
2019-05-17T01:31:06.695Z,9.00
2019-05-17T01:33:36.719Z,9.00
2019-05-17T01:36:06.874Z,9.00
2019-05-17T01:38:37.613Z,9.00
2019-05-17T01:41:07.190Z,9.00
2019-05-17T01:43:36.777Z,9.00
2019-05-17T01:46:06.830Z,9.00
2019-05-17T01:48:36.695Z,9.00
2019-05-17T01:51:07.484Z,9.00
2019-05-17T01:53:37.034Z,9.00
2019-05-17T01:56:06.555Z,9.00
2019-05-17T01:58:36.508Z,9.00
2019-05-17T02:01:07.709Z,9.00
2019-05-17T02:03:37.603Z,9.00
2019-05-17T02:06:07.612Z,8.90
2019-05-17T02:08:37.336Z,8.90
2019-05-17T02:11:06.971Z,8.90
2019-05-17T02:13:37.518Z,8.90
2019-05-17T02:16:07.429Z,8.90
2019-05-17T02:18:37.355Z,8.90
2019-05-17T02:21:06.796Z,8.90
2019-05-17T02:23:37.198Z,8.90
2019-05-17T02:26:06.897Z,8.90
2019-05-17T02:28:36.352Z,8.90
2019-05-17T02:31:05.705Z,8.90
2019-05-17T02:33:35.050Z,8.90
2019-05-17T02:36:04.367Z,8.90
2019-05-17T02:38:33.712Z,8.90
2019-05-17T02:41:03.367Z,8.90
2019-05-17T02:43:33.669Z,8.90
2019-05-17T02:46:03.913Z,8.90
2019-05-17T02:48:34.196Z,8.90
2019-05-17T02:51:04.098Z,8.90
2019-05-17T02:53:33.820Z,8.90
2019-05-17T02:56:03.563Z,8.90
2019-05-17T02:58:33.364Z,8.90
2019-05-17T03:01:03.897Z,8.90
2019-05-17T03:03:33.463Z,8.90
2019-05-17T03:06:03.442Z,8.90
2019-05-17T03:08:34.111Z,8.90
2019-05-17T03:11:04.211Z,8.90
2019-05-17T03:13:33.582Z,8.90
2019-05-17T03:16:03.679Z,8.90
2019-05-17T03:18:33.666Z,8.80
2019-05-17T03:21:04.077Z,8.80
2019-05-17T03:23:33.915Z,8.80
2019-05-17T03:26:03.946Z,8.80
2019-05-17T03:28:34.007Z,8.80
2019-05-17T03:31:07.873Z,8.70
2019-05-17T03:33:36.645Z,8.70
2019-05-17T03:36:07.482Z,8.70
2019-05-17T03:38:37.100Z,8.70
2019-05-17T03:41:18.569Z,8.70
2019-05-17T03:43:40.322Z,8.70
2019-05-17T03:46:08.490Z,8.70
2019-05-17T03:48:37.718Z,8.70
2019-05-17T03:51:07.005Z,8.70
2019-05-17T03:53:36.231Z,8.70
2019-05-17T03:56:05.471Z,8.70
2019-05-17T03:58:34.745Z,8.70
2019-05-17T04:01:04.447Z,8.80
2019-05-17T04:03:35.458Z,8.80
2019-05-17T04:06:04.877Z,8.80
2019-05-17T04:08:34.213Z,8.80
2019-05-17T04:11:20.255Z,8.80
2019-05-17T04:13:35.098Z,8.80
2019-05-17T04:16:09.009Z,8.80
2019-05-17T04:18:36.109Z,8.80
2019-05-17T04:21:05.378Z,8.80
2019-05-17T04:23:34.646Z,8.80
2019-05-17T04:26:04.498Z,8.80
2019-05-17T04:28:33.942Z,8.90
2019-05-17T04:31:03.556Z,8.90
2019-05-17T04:33:33.723Z,8.90
2019-05-17T04:36:03.346Z,8.90
2019-05-17T04:38:33.325Z,8.90
2019-05-17T04:41:03.435Z,8.90
2019-05-17T04:43:33.582Z,9.00
2019-05-17T04:46:03.281Z,9.00
2019-05-17T04:48:33.132Z,9.00
2019-05-17T04:51:03.060Z,9.00
2019-05-17T04:53:32.977Z,9.10
2019-05-17T04:56:03.276Z,9.10
2019-05-17T04:58:33.636Z,9.20
2019-05-17T05:01:04.271Z,9.20
2019-05-17T05:03:33.923Z,9.20
2019-05-17T05:06:03.711Z,9.20
2019-05-17T05:08:33.397Z,9.30
2019-05-17T05:11:04.192Z,9.30
2019-05-17T05:13:33.761Z,9.40
2019-05-17T05:16:03.462Z,9.40
2019-05-17T05:18:33.019Z,9.50
2019-05-17T05:21:03.537Z,9.50
2019-05-17T05:23:33.377Z,9.50
2019-05-17T05:26:03.218Z,9.60
2019-05-17T05:28:32.611Z,9.60
2019-05-17T05:31:02.193Z,9.60
2019-05-17T05:33:33.023Z,9.60
2019-05-17T05:36:02.597Z,9.70
2019-05-17T05:38:32.199Z,9.70
2019-05-17T05:41:02.012Z,9.70
2019-05-17T05:43:32.665Z,9.70
2019-05-17T05:46:02.735Z,9.70
2019-05-17T05:48:32.735Z,9.70
2019-05-17T05:51:04.239Z,9.70
2019-05-17T05:53:33.322Z,9.70
2019-05-17T05:56:03.561Z,9.60
2019-05-17T05:58:33.100Z,9.60
2019-05-17T06:01:02.686Z,9.70
2019-05-17T06:03:32.280Z,9.70
2019-05-17T06:06:01.977Z,9.70
2019-05-17T06:08:32.174Z,9.70
2019-05-17T06:11:02.403Z,9.70
2019-05-17T06:13:32.690Z,9.70
2019-05-17T06:16:02.831Z,9.70
2019-05-17T06:18:32.655Z,9.80
2019-05-17T06:21:02.962Z,9.90
2019-05-17T06:23:32.740Z,10.00
2019-05-17T06:26:04.019Z,10.10
2019-05-17T06:28:33.096Z,10.20
2019-05-17T06:31:03.058Z,10.30
2019-05-17T06:33:34.712Z,10.30
2019-05-17T06:36:03.488Z,10.40
2019-05-17T06:38:33.057Z,10.40
2019-05-17T06:41:02.512Z,10.50
2019-05-17T06:43:32.376Z,10.50
2019-05-17T06:46:02.051Z,10.50
2019-05-17T06:48:31.964Z,10.50
2019-05-17T06:51:02.576Z,10.50
2019-05-17T06:53:32.471Z,10.50
2019-05-17T06:56:02.620Z,10.60
2019-05-17T06:58:32.209Z,10.60
2019-05-17T07:01:01.680Z,10.60
2019-05-17T07:03:31.028Z,10.60
2019-05-17T07:06:01.984Z,10.60
2019-05-17T07:08:31.381Z,10.80
2019-05-17T07:11:00.657Z,10.90
2019-05-17T07:13:30.188Z,11.00
2019-05-17T07:15:59.803Z,11.10
2019-05-17T07:18:30.139Z,11.20
2019-05-17T07:21:02.824Z,11.20
2019-05-17T07:23:30.495Z,11.20
2019-05-17T07:25:59.834Z,11.20
2019-05-17T07:28:30.255Z,11.10
2019-05-17T07:30:59.920Z,11.00
2019-05-17T07:33:30.608Z,11.10
2019-05-17T07:35:59.987Z,11.10
2019-05-17T07:38:30.304Z,11.10
2019-05-17T07:40:59.867Z,11.10
2019-05-17T07:43:29.826Z,11.20
2019-05-17T07:46:00.500Z,11.30
2019-05-17T07:48:31.334Z,11.20
2019-05-17T07:51:00.939Z,11.30
2019-05-17T07:53:30.776Z,11.50
2019-05-17T07:56:00.232Z,11.50
2019-05-17T07:58:30.043Z,11.60
2019-05-17T08:01:01.893Z,11.60
2019-05-17T08:03:30.423Z,11.70
2019-05-17T08:06:00.175Z,11.70
2019-05-17T08:08:30.995Z,11.70
2019-05-17T08:11:00.823Z,11.70
2019-05-17T08:13:33.463Z,11.70
2019-05-17T08:16:01.217Z,11.90
2019-05-17T08:18:30.580Z,11.70
2019-05-17T08:20:59.929Z,11.70
2019-05-17T08:23:30.472Z,11.60
2019-05-17T08:26:00.620Z,11.60
2019-05-17T08:28:31.212Z,11.60
2019-05-17T08:31:01.217Z,11.60
2019-05-17T08:33:31.023Z,11.70
2019-05-17T08:36:00.603Z,11.80
2019-05-17T08:38:30.747Z,11.90
2019-05-17T08:41:00.734Z,11.90
2019-05-17T08:43:39.789Z,12.00
2019-05-17T08:46:01.867Z,12.10
2019-05-17T08:48:32.115Z,12.30
2019-05-17T08:51:01.725Z,12.20
2019-05-17T08:53:31.078Z,12.20
2019-05-17T08:56:00.968Z,12.20
2019-05-17T08:58:31.030Z,12.30
2019-05-17T09:01:00.597Z,12.20
2019-05-17T09:03:30.525Z,12.20
2019-05-17T09:06:02.104Z,12.10
2019-05-17T09:08:30.957Z,12.10
2019-05-17T09:11:00.583Z,12.10
2019-05-17T09:13:32.057Z,12.00
2019-05-17T09:16:01.365Z,12.00
2019-05-17T09:18:30.766Z,12.00
2019-05-17T09:21:02.153Z,12.00
2019-05-17T09:23:31.833Z,12.10
2019-05-17T09:26:01.215Z,12.10
2019-05-17T09:28:33.252Z,12.00
2019-05-17T09:31:02.686Z,12.20
2019-05-17T09:33:34.449Z,12.10
2019-05-17T09:36:04.907Z,12.20
2019-05-17T09:38:34.211Z,12.30
2019-05-17T09:41:03.571Z,12.40
2019-05-17T09:43:32.981Z,12.40
2019-05-17T09:46:02.263Z,12.30
2019-05-17T09:48:31.641Z,12.30
2019-05-17T09:51:00.896Z,12.40
2019-05-17T09:53:30.752Z,12.50
2019-05-17T09:56:00.729Z,12.70
2019-05-17T09:58:30.189Z,12.90
2019-05-17T10:01:01.447Z,13.00
2019-05-17T10:03:30.897Z,13.10
2019-05-17T10:06:00.351Z,13.30
2019-05-17T10:08:29.986Z,13.30
2019-05-17T10:11:08.386Z,13.50
2019-05-17T10:13:30.154Z,13.30
2019-05-17T10:16:00.469Z,13.20
2019-05-17T10:18:29.965Z,13.10
2019-05-17T10:20:59.797Z,13.10
2019-05-17T10:23:29.913Z,13.20
2019-05-17T10:25:59.689Z,13.20
2019-05-17T10:28:32.113Z,13.20
2019-05-17T10:31:02.415Z,13.20
2019-05-17T10:33:34.204Z,13.10
2019-05-17T10:36:03.504Z,13.20
2019-05-17T10:38:32.973Z,13.20
2019-05-17T10:41:02.393Z,13.30
2019-05-17T10:43:31.804Z,13.20
2019-05-17T10:46:01.080Z,13.20
2019-05-17T10:48:30.279Z,13.00
2019-05-17T10:51:00.309Z,13.00
2019-05-17T10:53:29.903Z,13.00
2019-05-17T10:56:00.695Z,13.10
2019-05-17T10:58:30.090Z,13.10
2019-05-17T11:01:00.869Z,13.20
2019-05-17T11:03:30.295Z,13.30
2019-05-17T11:05:59.988Z,13.50
2019-05-17T11:08:29.395Z,13.50
2019-05-17T11:10:59.663Z,13.60
2019-05-17T11:13:28.947Z,13.70
2019-05-17T11:15:58.222Z,13.80
2019-05-17T11:18:27.527Z,13.80
2019-05-17T11:20:56.909Z,13.80
2019-05-17T11:23:26.263Z,13.90
2019-05-17T11:25:55.790Z,13.80
2019-05-17T11:28:25.220Z,13.90
2019-05-17T11:30:54.690Z,14.10
2019-05-17T11:33:24.174Z,14.20
2019-05-17T11:35:53.811Z,14.40
2019-05-17T11:38:23.109Z,14.60
2019-05-17T11:40:52.679Z,14.70
2019-05-17T11:43:22.018Z,14.70
2019-05-17T11:45:51.403Z,14.80
2019-05-17T11:48:20.737Z,14.70
2019-05-17T11:50:50.197Z,14.70
2019-05-17T11:53:19.540Z,14.60
2019-05-17T11:55:48.979Z,14.40
2019-05-17T11:58:18.303Z,14.30
2019-05-17T12:00:48.718Z,14.30
2019-05-17T12:03:18.380Z,14.30
2019-05-17T12:05:47.569Z,14.30
2019-05-17T12:08:16.912Z,14.30
2019-05-17T12:10:46.384Z,14.30
2019-05-17T12:13:15.944Z,14.40
2019-05-17T12:15:46.260Z,14.40
2019-05-17T12:18:15.835Z,14.40
2019-05-17T12:20:45.116Z,14.20
2019-05-17T12:23:14.464Z,14.20
2019-05-17T12:25:44.115Z,14.30
2019-05-17T12:28:13.483Z,14.40
2019-05-17T12:30:42.757Z,14.50
2019-05-17T12:33:12.212Z,14.60
2019-05-17T12:35:41.557Z,14.60
2019-05-17T12:38:20.235Z,14.70
2019-05-17T12:40:49.500Z,14.60
2019-05-17T12:43:18.993Z,14.70
2019-05-17T12:46:00.025Z,14.80
2019-05-17T12:48:19.500Z,14.80
2019-05-17T12:50:49.116Z,14.80
2019-05-17T12:53:18.555Z,14.80
2019-05-17T12:55:47.959Z,15.00
2019-05-17T12:58:17.382Z,15.30
2019-05-17T13:00:46.687Z,15.40
2019-05-17T13:03:19.708Z,15.40
2019-05-17T13:05:52.647Z,15.40
2019-05-17T13:08:22.081Z,15.50
2019-05-17T13:10:51.390Z,15.50
2019-05-17T13:13:20.681Z,15.50
2019-05-17T13:15:50.499Z,15.50
2019-05-17T13:18:20.162Z,15.50
2019-05-17T13:20:49.610Z,15.70
2019-05-17T13:23:18.992Z,16.00
2019-05-17T13:25:50.808Z,16.30
2019-05-17T13:28:20.169Z,16.40
2019-05-17T13:31:08.616Z,16.10
2019-05-17T13:33:37.953Z,16.20
2019-05-17T13:36:07.309Z,16.00
2019-05-17T13:38:37.927Z,15.90
2019-05-17T13:41:07.648Z,15.80
2019-05-17T13:43:36.996Z,15.70
2019-05-17T13:46:06.674Z,15.60
2019-05-17T13:48:35.987Z,15.50
2019-05-17T13:51:05.650Z,15.60
2019-05-17T13:53:37.907Z,15.50
2019-05-17T13:56:07.545Z,15.30
2019-05-17T13:58:37.340Z,15.30
2019-05-17T14:01:06.670Z,15.30
2019-05-17T14:03:36.224Z,15.30
2019-05-17T14:06:05.716Z,15.30
2019-05-17T14:08:35.083Z,15.30
2019-05-17T14:11:04.639Z,15.30
2019-05-17T14:13:35.611Z,15.30
2019-05-17T14:16:05.335Z,15.20
2019-05-17T14:18:34.939Z,15.20
2019-05-17T14:21:05.692Z,15.10
2019-05-17T14:23:37.087Z,15.10
2019-05-17T14:26:06.603Z,15.00
2019-05-17T14:28:35.977Z,15.10
2019-05-17T14:31:05.541Z,15.20
2019-05-17T14:33:34.832Z,15.30
2019-05-17T14:36:04.211Z,15.30
2019-05-17T14:38:33.893Z,15.30
2019-05-17T14:41:07.164Z,15.30
2019-05-17T14:43:34.242Z,15.30
2019-05-17T14:46:03.614Z,15.30
2019-05-17T14:48:33.075Z,15.40
2019-05-17T14:51:02.547Z,15.40
2019-05-17T14:53:31.827Z,15.80
2019-05-17T14:56:01.193Z,16.20
2019-05-17T14:58:30.601Z,16.60
2019-05-17T15:00:59.949Z,17.20
2019-05-17T15:03:29.290Z,17.50
2019-05-17T15:05:58.694Z,17.70
2019-05-17T15:08:28.440Z,18.00
2019-05-17T15:10:58.325Z,18.00
2019-05-17T15:13:27.992Z,17.80
2019-05-17T15:15:57.432Z,17.70
2019-05-17T15:18:26.885Z,17.80
2019-05-17T15:20:56.359Z,18.10
2019-05-17T15:23:25.640Z,18.30
2019-05-17T15:25:55.145Z,18.30
2019-05-17T15:28:24.543Z,18.30
2019-05-17T15:30:53.908Z,18.10
2019-05-17T15:33:23.288Z,17.80
2019-05-17T15:35:52.492Z,17.50
2019-05-17T15:38:21.786Z,17.40
2019-05-17T15:40:51.192Z,17.40
2019-05-17T15:43:20.573Z,17.40
2019-05-17T15:45:50.076Z,17.50
2019-05-17T15:48:19.526Z,17.40
2019-05-17T15:50:48.802Z,17.30
2019-05-17T15:53:18.243Z,17.00
2019-05-17T15:55:47.639Z,17.00
2019-05-17T15:58:16.996Z,16.90
2019-05-17T16:00:46.365Z,17.00
2019-05-17T16:03:15.628Z,17.00
2019-05-17T16:05:45.164Z,16.90
2019-05-17T16:08:14.448Z,16.80
2019-05-17T16:10:43.884Z,16.90
2019-05-17T16:13:15.720Z,16.80
2019-05-17T16:15:45.263Z,16.80
2019-05-17T16:18:14.596Z,16.70
2019-05-17T16:20:44.071Z,16.70
2019-05-17T16:23:13.480Z,17.00
2019-05-17T16:25:42.908Z,17.30
2019-05-17T16:28:12.270Z,17.40
2019-05-17T16:30:41.630Z,17.60
2019-05-17T16:33:10.987Z,17.40
2019-05-17T16:35:50.490Z,17.40
2019-05-17T16:38:22.434Z,17.30
2019-05-17T16:40:54.115Z,17.30
2019-05-17T16:43:23.932Z,17.10
2019-05-17T16:45:53.347Z,17.10
2019-05-17T16:48:24.119Z,17.00
2019-05-17T16:50:54.273Z,17.00
2019-05-17T16:53:23.861Z,16.90
2019-05-17T16:55:53.443Z,16.70
2019-05-17T16:58:22.772Z,16.60
2019-05-17T17:00:52.202Z,16.40
2019-05-17T17:03:21.737Z,16.30
2019-05-17T17:05:51.006Z,16.30
2019-05-17T17:08:20.441Z,16.20
2019-05-17T17:10:49.915Z,16.10
2019-05-17T17:13:32.432Z,15.90
2019-05-17T17:15:50.399Z,15.90
2019-05-17T17:18:24.613Z,15.80
2019-05-17T17:20:54.196Z,15.80
2019-05-17T17:23:23.590Z,15.70
2019-05-17T17:25:53.133Z,15.60
2019-05-17T17:28:25.376Z,15.60
2019-05-17T17:30:53.352Z,15.50
2019-05-17T17:33:22.736Z,15.50
2019-05-17T17:35:52.069Z,15.50
2019-05-17T17:38:21.518Z,15.50
2019-05-17T17:40:50.897Z,15.40
2019-05-17T17:43:20.488Z,15.40
2019-05-17T17:45:49.765Z,15.40
2019-05-17T17:48:19.119Z,15.30
2019-05-17T17:50:48.482Z,15.30
2019-05-17T17:53:17.807Z,15.30
2019-05-17T17:55:47.194Z,15.30
2019-05-17T17:58:19.923Z,15.20
2019-05-17T18:00:50.442Z,15.20
2019-05-17T18:03:19.720Z,15.20
2019-05-17T18:05:49.108Z,15.20
2019-05-17T18:08:18.441Z,15.20
2019-05-17T18:10:47.895Z,15.20
2019-05-17T18:13:17.394Z,15.20
2019-05-17T18:15:50.225Z,15.10
2019-05-17T18:18:18.390Z,15.10
2019-05-17T18:20:47.858Z,15.00
2019-05-17T18:23:22.555Z,15.00
2019-05-17T18:25:48.063Z,14.90
2019-05-17T18:28:17.441Z,14.90
2019-05-17T18:30:46.743Z,14.80
2019-05-17T18:33:16.173Z,14.70
2019-05-17T18:35:45.488Z,14.70
2019-05-17T18:38:17.195Z,14.60
2019-05-17T18:40:46.579Z,14.60
2019-05-17T18:43:15.866Z,14.40
2019-05-17T18:45:45.263Z,14.40
2019-05-17T18:48:14.721Z,14.30
2019-05-17T18:50:47.986Z,14.30
2019-05-17T18:53:17.482Z,14.20
2019-05-17T18:55:46.870Z,14.10
2019-05-17T18:58:16.381Z,14.00
2019-05-17T19:00:45.871Z,14.00
2019-05-17T19:03:15.229Z,13.90
2019-05-17T19:05:45.362Z,13.90
2019-05-17T19:08:15.132Z,13.80
2019-05-17T19:10:44.532Z,13.70
2019-05-17T19:13:15.347Z,13.70
2019-05-17T19:15:45.031Z,13.60
2019-05-17T19:18:14.501Z,13.60
2019-05-17T19:20:43.868Z,13.50
2019-05-17T19:23:13.311Z,13.40
2019-05-17T19:25:42.691Z,13.40
2019-05-17T19:28:12.015Z,13.30
2019-05-17T19:30:41.278Z,13.20
2019-05-17T19:33:10.636Z,13.10
2019-05-17T19:35:39.933Z,13.10
2019-05-17T19:38:09.347Z,13.00
2019-05-17T19:40:38.662Z,12.90
2019-05-17T19:43:07.918Z,12.90
2019-05-17T19:45:37.229Z,12.80
2019-05-17T19:48:06.553Z,12.70
2019-05-17T19:50:35.910Z,12.70
2019-05-17T19:53:05.191Z,12.60
2019-05-17T19:55:34.519Z,12.50
2019-05-17T19:58:03.916Z,12.40
2019-05-17T20:00:33.316Z,12.30
2019-05-17T20:03:02.721Z,12.30
2019-05-17T20:05:32.128Z,12.20
2019-05-17T20:08:01.554Z,12.10
2019-05-17T20:10:30.849Z,12.10
2019-05-17T20:13:00.250Z,12.00
2019-05-17T20:15:34.619Z,12.00
2019-05-17T20:18:00.650Z,12.00
2019-05-17T20:20:30.068Z,12.00
2019-05-17T20:22:59.423Z,12.00
2019-05-17T20:25:28.686Z,11.90
2019-05-17T20:27:58.018Z,11.90
2019-05-17T20:30:27.453Z,11.90
2019-05-17T20:32:56.772Z,11.90
2019-05-17T20:35:26.168Z,11.90
2019-05-17T20:37:55.519Z,12.00
2019-05-17T20:40:24.821Z,12.00
2019-05-17T20:42:54.260Z,12.00
2019-05-17T20:45:32.695Z,12.00
2019-05-17T20:47:54.668Z,12.00
2019-05-17T20:50:24.039Z,12.00
2019-05-17T20:52:53.439Z,12.00
2019-05-17T20:55:22.770Z,12.00
2019-05-17T20:57:52.295Z,12.00
2019-05-17T21:00:21.769Z,11.90
2019-05-17T21:02:51.073Z,11.90
2019-05-17T21:05:21.553Z,11.90
2019-05-17T21:07:50.941Z,11.90
2019-05-17T21:10:23.815Z,11.90
2019-05-17T21:12:53.148Z,11.90
2019-05-17T21:15:22.534Z,11.90
2019-05-17T21:17:51.907Z,11.80
2019-05-17T21:20:21.703Z,11.80
2019-05-17T21:22:51.016Z,11.80
2019-05-17T21:25:23.354Z,11.80
2019-05-17T21:27:52.703Z,11.80
2019-05-17T21:30:22.232Z,11.80
2019-05-17T21:32:51.600Z,11.80
2019-05-17T21:35:23.443Z,11.80
2019-05-17T21:37:52.715Z,11.80
2019-05-17T21:40:22.119Z,11.80
2019-05-17T21:42:51.416Z,11.80
2019-05-17T21:45:20.719Z,11.80
2019-05-17T21:47:50.114Z,11.80
2019-05-17T21:50:19.638Z,11.80
2019-05-17T21:52:49.031Z,11.80
2019-05-17T21:55:18.352Z,11.80
2019-05-17T21:57:47.646Z,11.80
2019-05-17T22:00:35.442Z,11.80
2019-05-17T22:03:04.908Z,11.80
2019-05-17T22:05:34.376Z,11.80
2019-05-17T22:08:03.701Z,11.80
2019-05-17T22:10:33.029Z,11.70
2019-05-17T22:13:02.400Z,11.70
2019-05-17T22:15:31.736Z,11.70
2019-05-17T22:18:01.007Z,11.70
2019-05-17T22:20:30.407Z,11.70
2019-05-17T22:22:59.636Z,11.70
2019-05-17T22:25:29.021Z,11.60
2019-05-17T22:27:58.257Z,11.60
2019-05-17T22:30:30.391Z,11.60
2019-05-17T22:32:59.756Z,11.60
2019-05-17T22:35:29.113Z,11.60
2019-05-17T22:37:58.493Z,11.60
2019-05-17T22:40:29.186Z,11.50
2019-05-17T22:42:58.539Z,11.50
2019-05-17T22:45:30.998Z,11.50
2019-05-17T22:48:00.331Z,11.50
2019-05-17T22:50:29.732Z,11.40
2019-05-17T22:52:59.108Z,11.40
2019-05-17T22:55:31.269Z,11.40
2019-05-17T22:58:00.538Z,11.40
2019-05-17T23:00:32.947Z,11.30
2019-05-17T23:03:02.196Z,11.30
2019-05-17T23:05:31.549Z,11.30
2019-05-17T23:08:00.834Z,11.20
2019-05-17T23:10:35.097Z,11.20
2019-05-17T23:13:03.750Z,11.20
2019-05-17T23:15:36.325Z,11.20
2019-05-17T23:18:05.811Z,11.20
2019-05-17T23:20:35.202Z,11.10
2019-05-17T23:23:04.629Z,11.10
2019-05-17T23:25:34.027Z,11.10
2019-05-17T23:28:03.302Z,11.10
2019-05-17T23:30:32.797Z,11.00
2019-05-17T23:33:02.214Z,11.00
2019-05-17T23:35:31.632Z,11.00
2019-05-17T23:38:01.105Z,11.00
2019-05-17T23:40:33.264Z,10.90
2019-05-17T23:43:02.589Z,10.90
2019-05-17T23:45:31.976Z,10.80
2019-05-17T23:48:01.274Z,10.80
2019-05-17T23:50:30.738Z,10.70
2019-05-17T23:53:00.074Z,10.60
2019-05-17T23:55:29.465Z,10.60
2019-05-17T23:57:58.805Z,10.60
